עמוד ראשי
METAR-TAF:

METAR-TAF

שדות תעופה :

סלוניקי, יוון

נמל התעופה הבינלאומי סלוניקי מקדוניה

קו רוחב: 40-31N, קו אורך: 022-58E, גובה: 8מטר

תצפית מזג אוויר נוכחית

הדו"ח נערך לפני 43דקות, בשעה 03:20 UTC
רוח 4קשר מכיוון מזרח/דרום-מזרח
טמפרטורת 1 צלסיוס
לחות 86%
לחץ 1021 hPa
ראות 10 קילומטר או יותר
ללא עננים שבסיסם נמוך מ 5000 רגל או קומולונימבוס

METAR: LGTS 110320Z 11004KT CAVOK 01/M01 Q1021 NOSIG

זמן: 06:03 (04:03 UTC)

תחזית

הדו"ח נערך לפני 5 שעות ו 3דקות, בשעה 23:00 UTC
תחזית בתוקף מ 11 ב 00 UTC עד 11 ב 24 UTC
רוח 5קשר מכיוון צפון/צפון-מערב
ראות 10 קילומטר או יותר
ללא עננים שבסיסם נמוך מ 5000 רגל או קומולונימבוס

TAF: LGTS 102300Z 1100/1124 34005KT CAVOK

תצפיות ותחזיות מזג אוויר לגבי יותר מ- 4,000 שדות תעופה ברחבי העולם. דוחות METAR ו- TAF.

התחנות הזמינות מסומנות בנקודות צהובות ואדומות על גבי המפה.

העבר את העכבר לנקודה הצבעונית על מנת לראות את שם התחנה.

לאחר מכן, לחץ כדי לראות את תוכן ואת תחזיות מזג האוויר.

כדי לשנות את המפה: לחץ על הכפתורים הירוקים עם הפלוס השחור כדי להתקרב; על הכפתור הירוק עם המקף כדי להתרחק; או בחיצים הירוקים למפות סמוכות.


METAR-TAF: